createdAt,value
2017-09-19T00:00:42.838Z,0
2017-09-19T00:01:51.857Z,0
2017-09-19T00:03:01.205Z,0
2017-09-19T00:04:10.544Z,0
2017-09-19T00:05:19.882Z,0
2017-09-19T00:06:28.580Z,0
2017-09-19T00:07:37.277Z,0
2017-09-19T00:08:46.292Z,0
2017-09-19T00:09:55.964Z,0
2017-09-19T00:11:05.301Z,0
2017-09-19T00:12:14.956Z,0
2017-09-19T00:13:23.976Z,0
2017-09-19T00:14:32.671Z,0
2017-09-19T00:15:41.367Z,0
2017-09-19T00:16:50.706Z,0
2017-09-19T00:17:59.724Z,0
2017-09-19T00:19:09.065Z,0
2017-09-19T00:20:18.084Z,0
2017-09-19T00:21:26.792Z,0
2017-09-19T00:22:36.128Z,0
2017-09-19T00:23:45.142Z,0
2017-09-19T00:24:54.798Z,0
2017-09-19T00:26:04.137Z,0
2017-09-19T00:27:13.152Z,0
2017-09-19T00:28:22.810Z,0
2017-09-19T00:29:31.508Z,0
2017-09-19T00:30:41.162Z,0
2017-09-19T00:31:50.188Z,0
2017-09-19T00:32:59.533Z,0
2017-09-19T00:34:08.553Z,0
2017-09-19T00:35:18.543Z,0
2017-09-19T00:36:27.238Z,0
2017-09-19T00:37:36.575Z,0
2017-09-19T00:38:45.590Z,0
2017-09-19T00:39:55.244Z,0
2017-09-19T00:41:04.274Z,0
2017-09-19T00:42:13.940Z,0
2017-09-19T00:43:23.276Z,0
2017-09-19T00:44:32.296Z,0
2017-09-19T00:45:41.315Z,0
2017-09-19T00:46:51.286Z,0
2017-09-19T00:48:00.621Z,0
2017-09-19T00:49:09.961Z,0
2017-09-19T00:50:18.978Z,0
2017-09-19T00:51:27.674Z,0
2017-09-19T00:52:36.692Z,0
2017-09-19T00:53:46.355Z,0
2017-09-19T00:54:56.011Z,0
2017-09-19T00:56:05.352Z,0
2017-09-19T00:57:14.366Z,0
2017-09-19T00:58:23.702Z,0
2017-09-19T00:59:32.715Z,0
2017-09-19T01:00:41.411Z,0
2017-09-19T01:01:51.067Z,0
2017-09-19T01:03:00.398Z,0
2017-09-19T01:04:09.741Z,0
2017-09-19T01:05:18.760Z,0
2017-09-19T01:06:27.772Z,0
2017-09-19T01:07:36.793Z,0
2017-09-19T01:08:46.131Z,0
2017-09-19T01:09:55.472Z,0
2017-09-19T01:11:04.809Z,0
2017-09-19T01:12:13.823Z,0
2017-09-19T01:13:23.158Z,0
2017-09-19T01:14:32.492Z,0
2017-09-19T01:15:41.508Z,0
2017-09-19T01:16:50.208Z,0
2017-09-19T01:17:59.225Z,0
2017-09-19T01:19:08.885Z,0
2017-09-19T01:20:17.906Z,0
2017-09-19T01:21:26.921Z,0
2017-09-19T01:22:36.254Z,0
2017-09-19T01:23:45.269Z,0
2017-09-19T01:24:54.608Z,0
2017-09-19T01:26:03.623Z,0
2017-09-19T01:27:12.963Z,0
2017-09-19T01:28:22.944Z,0
2017-09-19T01:29:31.959Z,0
2017-09-19T01:30:40.975Z,0
2017-09-19T01:31:49.990Z,0
2017-09-19T01:32:59.658Z,0
2017-09-19T01:34:08.997Z,0
2017-09-19T01:35:18.013Z,0
2017-09-19T01:36:27.355Z,0
2017-09-19T01:37:36.699Z,0
2017-09-19T01:38:46.054Z,0
2017-09-19T01:39:55.388Z,0
2017-09-19T01:41:04.404Z,0
2017-09-19T01:42:13.101Z,0
2017-09-19T01:43:22.114Z,0
2017-09-19T01:44:31.447Z,0
2017-09-19T01:45:40.781Z,0
2017-09-19T01:46:50.119Z,0
2017-09-19T01:47:59.135Z,0
2017-09-19T01:49:08.470Z,0
2017-09-19T01:50:17.165Z,0
2017-09-19T01:51:25.861Z,0
2017-09-19T01:52:34.879Z,0
2017-09-19T01:53:43.895Z,0
2017-09-19T01:54:53.233Z,0
2017-09-19T01:56:02.576Z,0
2017-09-19T01:57:11.601Z,0
2017-09-19T01:58:21.582Z,0
2017-09-19T01:59:30.598Z,0
2017-09-19T02:00:39.294Z,0
2017-09-19T02:01:48.629Z,0
2017-09-19T02:02:57.645Z,0
2017-09-19T02:04:06.340Z,0
2017-09-19T02:05:15.675Z,0
2017-09-19T02:06:24.689Z,0
2017-09-19T02:07:34.341Z,0
2017-09-19T02:08:44.000Z,0
2017-09-19T02:09:53.017Z,0
2017-09-19T02:11:02.673Z,0
2017-09-19T02:12:11.690Z,0
2017-09-19T02:13:20.704Z,0
2017-09-19T02:14:29.723Z,0
2017-09-19T02:15:38.419Z,0
2017-09-19T02:16:47.436Z,0
2017-09-19T02:17:56.457Z,0
2017-09-19T02:19:05.792Z,0
2017-09-19T02:20:15.449Z,0
2017-09-19T02:21:24.794Z,0
2017-09-19T02:22:33.818Z,0
2017-09-19T02:23:42.515Z,0
2017-09-19T02:24:51.851Z,0
2017-09-19T02:26:01.185Z,0
2017-09-19T02:27:10.227Z,0
2017-09-19T02:28:19.538Z,0
2017-09-19T02:29:28.233Z,0
2017-09-19T02:30:37.892Z,0
2017-09-19T02:31:46.913Z,0
2017-09-19T02:32:55.958Z,0
2017-09-19T02:34:05.624Z,0
2017-09-19T02:35:14.975Z,0
2017-09-19T02:36:23.991Z,0
2017-09-19T02:37:33.005Z,0
2017-09-19T02:38:42.023Z,0
2017-09-19T02:39:51.401Z,0
2017-09-19T02:41:01.062Z,0
2017-09-19T02:42:09.760Z,0
2017-09-19T02:43:19.101Z,0
2017-09-19T02:44:28.116Z,0
2017-09-19T02:45:37.450Z,0
2017-09-19T02:46:47.113Z,0
2017-09-19T02:47:56.452Z,0
2017-09-19T02:49:05.466Z,0
2017-09-19T02:50:14.803Z,0
2017-09-19T02:51:24.143Z,0
2017-09-19T02:52:32.840Z,0
2017-09-19T02:53:42.184Z,0
2017-09-19T02:54:51.527Z,0
2017-09-19T02:56:00.549Z,0
2017-09-19T02:57:10.204Z,0
2017-09-19T02:58:19.546Z,0
2017-09-19T02:59:28.887Z,0
2017-09-19T03:00:37.586Z,0
2017-09-19T03:01:47.572Z,0
2017-09-19T03:02:56.586Z,0
2017-09-19T03:04:06.243Z,0
2017-09-19T03:05:15.262Z,0
2017-09-19T03:06:24.603Z,0
2017-09-19T03:07:33.300Z,0
2017-09-19T03:08:42.636Z,0
2017-09-19T03:09:51.971Z,0
2017-09-19T03:11:00.987Z,0
2017-09-19T03:12:10.330Z,0
2017-09-19T03:13:19.352Z,0
2017-09-19T03:14:28.373Z,0
2017-09-19T03:15:37.390Z,0
2017-09-19T03:16:46.404Z,0
2017-09-19T03:17:56.066Z,0
2017-09-19T03:19:04.771Z,0
2017-09-19T03:20:13.794Z,0
2017-09-19T03:21:23.123Z,0
2017-09-19T03:22:32.461Z,0
2017-09-19T03:23:41.795Z,0
2017-09-19T03:24:50.811Z,0
2017-09-19T03:26:00.470Z,0
2017-09-19T03:27:09.486Z,0
2017-09-19T03:28:18.829Z,0
2017-09-19T03:29:27.842Z,0
2017-09-19T03:30:36.861Z,0
2017-09-19T03:31:45.877Z,0
2017-09-19T03:32:54.895Z,0
2017-09-19T03:34:04.232Z,0
2017-09-19T03:35:13.563Z,0
2017-09-19T03:36:22.260Z,0
2017-09-19T03:37:31.277Z,0
2017-09-19T03:38:40.608Z,0
2017-09-19T03:39:49.627Z,0
2017-09-19T03:40:58.642Z,0
2017-09-19T03:42:07.985Z,0
2017-09-19T03:43:17.644Z,0
2017-09-19T03:44:27.621Z,0
2017-09-19T03:45:36.321Z,0
2017-09-19T03:46:45.339Z,0
2017-09-19T03:47:54.673Z,0
2017-09-19T03:49:03.689Z,0
2017-09-19T03:50:12.385Z,0
2017-09-19T03:51:21.402Z,0
2017-09-19T03:52:30.420Z,0
2017-09-19T03:53:39.755Z,0
2017-09-19T03:54:48.778Z,0
2017-09-19T03:55:58.119Z,0
2017-09-19T03:57:07.776Z,0
2017-09-19T03:58:16.473Z,0
2017-09-19T03:59:26.132Z,0
2017-09-19T04:00:35.788Z,0
2017-09-19T04:01:44.484Z,0
2017-09-19T04:02:53.819Z,0
2017-09-19T04:04:02.517Z,0
2017-09-19T04:05:11.861Z,0
2017-09-19T04:06:21.516Z,0
2017-09-19T04:07:30.863Z,0
2017-09-19T04:08:39.879Z,0
2017-09-19T04:09:49.868Z,0
2017-09-19T04:10:58.885Z,0
2017-09-19T04:12:07.903Z,0
2017-09-19T04:13:16.917Z,0
2017-09-19T04:14:25.943Z,0
2017-09-19T04:15:35.285Z,0
2017-09-19T04:16:43.984Z,0
2017-09-19T04:17:52.996Z,0
2017-09-19T04:19:02.010Z,0
2017-09-19T04:20:10.704Z,0
2017-09-19T04:21:20.680Z,0
2017-09-19T04:22:29.373Z,0
2017-09-19T04:23:39.032Z,0
2017-09-19T04:24:48.687Z,0
2017-09-19T04:25:58.342Z,0
2017-09-19T04:27:07.676Z,0
2017-09-19T04:28:16.694Z,0
2017-09-19T04:29:26.037Z,0
2017-09-19T04:30:35.055Z,0
2017-09-19T04:31:44.388Z,0
2017-09-19T04:32:54.690Z,0
2017-09-19T04:34:04.027Z,0
2017-09-19T04:35:13.041Z,0
2017-09-19T04:36:22.057Z,0
2017-09-19T04:37:31.395Z,0
2017-09-19T04:38:40.412Z,0
2017-09-19T04:39:49.745Z,0
2017-09-19T04:40:58.761Z,0
2017-09-19T04:42:08.424Z,0
2017-09-19T04:43:18.083Z,0
2017-09-19T04:44:27.098Z,0
2017-09-19T04:45:35.793Z,0
2017-09-19T04:46:44.811Z,0
2017-09-19T04:47:54.465Z,0
2017-09-19T04:49:03.801Z,0
2017-09-19T04:50:12.498Z,0
2017-09-19T04:51:21.521Z,0
2017-09-19T04:52:30.857Z,0
2017-09-19T04:53:39.870Z,0
2017-09-19T04:54:48.567Z,0
2017-09-19T04:55:58.230Z,0
2017-09-19T04:57:07.244Z,0
2017-09-19T04:58:15.937Z,0
2017-09-19T04:59:24.954Z,0
2017-09-19T05:00:34.292Z,0
2017-09-19T05:01:43.627Z,0
2017-09-19T05:02:52.326Z,0
2017-09-19T05:04:01.338Z,0
2017-09-19T05:05:10.357Z,0
2017-09-19T05:06:19.376Z,0
2017-09-19T05:07:28.394Z,0
2017-09-19T05:08:37.089Z,0
2017-09-19T05:09:46.426Z,0
2017-09-19T05:10:55.122Z,0
2017-09-19T05:12:04.139Z,0
2017-09-19T05:13:13.159Z,0
2017-09-19T05:14:22.499Z,0
2017-09-19T05:15:32.484Z,0
2017-09-19T05:16:41.182Z,0
2017-09-19T05:17:50.518Z,0
2017-09-19T05:18:59.219Z,0
2017-09-19T05:20:08.874Z,0
2017-09-19T05:21:18.532Z,0
2017-09-19T05:22:27.549Z,0
2017-09-19T05:23:36.884Z,0
2017-09-19T05:24:45.904Z,0
2017-09-19T05:25:54.956Z,0
2017-09-19T05:27:03.977Z,0
2017-09-19T05:28:13.635Z,0
2017-09-19T05:29:22.330Z,0
2017-09-19T05:30:31.028Z,0
2017-09-19T05:31:40.366Z,0
2017-09-19T05:32:49.697Z,0
2017-09-19T05:33:58.714Z,0
2017-09-19T05:35:07.733Z,0
2017-09-19T05:36:16.447Z,0
2017-09-19T05:37:26.406Z,0
2017-09-19T05:38:35.428Z,0
2017-09-19T05:39:44.773Z,0
2017-09-19T05:40:54.109Z,0
2017-09-19T05:42:03.445Z,0
2017-09-19T05:43:12.464Z,0
2017-09-19T05:44:21.801Z,0
2017-09-19T05:45:31.143Z,0
2017-09-19T05:46:40.500Z,0
2017-09-19T05:47:50.154Z,0
2017-09-19T05:48:58.853Z,0
2017-09-19T05:50:08.189Z,0
2017-09-19T05:51:16.883Z,0
2017-09-19T05:52:25.903Z,0
2017-09-19T05:53:34.915Z,0
2017-09-19T05:54:44.572Z,0
2017-09-19T05:55:53.588Z,0
2017-09-19T05:57:02.923Z,0
2017-09-19T05:58:11.942Z,0
2017-09-19T05:59:20.958Z,0
2017-09-19T06:00:29.974Z,0
2017-09-19T06:01:39.309Z,0
2017-09-19T06:02:48.004Z,0
2017-09-19T06:03:57.661Z,0
2017-09-19T06:05:06.995Z,0
2017-09-19T06:06:16.010Z,0
2017-09-19T06:07:25.023Z,0
2017-09-19T06:08:34.997Z,0
2017-09-19T06:09:44.651Z,0
2017-09-19T06:10:53.345Z,0
2017-09-19T06:12:02.682Z,0
2017-09-19T06:13:12.014Z,0
2017-09-19T06:14:21.027Z,0
2017-09-19T06:15:30.042Z,0
2017-09-19T06:16:39.378Z,0
2017-09-19T06:17:49.032Z,0
2017-09-19T06:18:58.368Z,0
2017-09-19T06:20:07.700Z,0
2017-09-19T06:21:16.719Z,0
2017-09-19T06:22:25.414Z,0
2017-09-19T06:23:34.749Z,0
2017-09-19T06:24:44.406Z,0
2017-09-19T06:25:53.744Z,0
2017-09-19T06:27:03.088Z,0
2017-09-19T06:28:12.104Z,0
2017-09-19T06:29:21.440Z,0
2017-09-19T06:30:30.484Z,0
2017-09-19T06:31:39.509Z,0
2017-09-19T06:32:48.203Z,0
2017-09-19T06:33:56.896Z,0
2017-09-19T06:35:05.591Z,0
2017-09-19T06:36:14.285Z,5
2017-09-19T06:37:23.299Z,5
2017-09-19T06:38:32.636Z,5
2017-09-19T06:39:41.654Z,5
2017-09-19T06:40:51.009Z,0
2017-09-19T06:42:00.029Z,0
2017-09-19T06:43:09.362Z,5
2017-09-19T06:44:18.062Z,5
2017-09-19T06:45:27.076Z,5
2017-09-19T06:46:36.731Z,5
2017-09-19T06:47:46.389Z,5
2017-09-19T06:48:55.119Z,5
2017-09-19T06:50:04.099Z,0
2017-09-19T06:51:13.433Z,5
2017-09-19T06:52:22.448Z,5
2017-09-19T06:53:31.461Z,5
2017-09-19T06:54:40.477Z,5
2017-09-19T06:55:49.814Z,5
2017-09-19T06:56:58.824Z,5
2017-09-19T06:58:07.523Z,5
2017-09-19T06:59:16.865Z,5
2017-09-19T07:00:25.564Z,5
2017-09-19T07:01:34.902Z,5
2017-09-19T07:02:43.918Z,5
2017-09-19T07:03:52.932Z,5
2017-09-19T07:05:01.945Z,5
2017-09-19T07:06:11.281Z,5
2017-09-19T07:07:19.975Z,0
2017-09-19T07:08:28.989Z,0
2017-09-19T07:09:37.687Z,0
2017-09-19T07:10:47.026Z,0
2017-09-19T07:11:56.361Z,0
2017-09-19T07:13:05.376Z,0
2017-09-19T07:14:15.035Z,0
2017-09-19T07:15:23.732Z,0
2017-09-19T07:16:32.424Z,0
2017-09-19T07:17:41.437Z,0
2017-09-19T07:18:50.770Z,5
2017-09-19T07:19:59.464Z,5
2017-09-19T07:21:08.480Z,5
2017-09-19T07:22:17.822Z,5
2017-09-19T07:23:26.837Z,5
2017-09-19T07:24:36.174Z,5
2017-09-19T07:25:45.193Z,10
2017-09-19T07:26:54.532Z,10
2017-09-19T07:28:03.871Z,5
2017-09-19T07:29:13.530Z,5
2017-09-19T07:30:22.550Z,5
2017-09-19T07:31:31.887Z,10
2017-09-19T07:32:40.587Z,10
2017-09-19T07:33:49.605Z,10
2017-09-19T07:34:58.946Z,5
2017-09-19T07:36:07.646Z,5
2017-09-19T07:37:16.988Z,5
2017-09-19T07:38:26.008Z,10
2017-09-19T07:39:35.342Z,10
2017-09-19T07:40:44.676Z,15
2017-09-19T07:41:54.021Z,20
2017-09-19T07:43:03.362Z,30
2017-09-19T07:44:12.059Z,25
2017-09-19T07:45:21.077Z,20
2017-09-19T07:46:30.097Z,20
2017-09-19T07:47:39.755Z,10
2017-09-19T07:48:49.091Z,10
2017-09-19T07:49:57.792Z,10
2017-09-19T07:51:06.812Z,10
2017-09-19T07:52:15.831Z,10
2017-09-19T07:53:24.854Z,10
2017-09-19T07:54:34.192Z,15
2017-09-19T07:55:42.892Z,10
2017-09-19T07:56:51.918Z,10
2017-09-19T07:58:01.252Z,10
2017-09-19T07:59:10.938Z,10
2017-09-19T08:00:19.636Z,10
2017-09-19T08:01:28.979Z,10
2017-09-19T08:02:38.637Z,10
2017-09-19T08:03:47.650Z,5
2017-09-19T08:04:56.343Z,5
2017-09-19T08:06:05.360Z,5
2017-09-19T08:07:15.019Z,5
2017-09-19T08:08:24.355Z,0
2017-09-19T08:09:33.051Z,0
2017-09-19T08:10:42.068Z,0
2017-09-19T08:11:51.082Z,5
2017-09-19T08:13:00.417Z,5
2017-09-19T08:14:10.394Z,5
2017-09-19T08:15:19.729Z,5
2017-09-19T08:16:29.067Z,5
2017-09-19T08:17:39.108Z,5
2017-09-19T08:18:49.195Z,5
2017-09-19T08:19:58.218Z,5
2017-09-19T08:21:07.232Z,5
2017-09-19T08:22:16.245Z,5
2017-09-19T08:23:24.938Z,5
2017-09-19T08:24:34.275Z,5
2017-09-19T08:25:44.249Z,5
2017-09-19T08:26:53.275Z,5
2017-09-19T08:28:02.610Z,10
2017-09-19T08:29:11.624Z,10
2017-09-19T08:30:20.957Z,15
2017-09-19T08:31:29.973Z,15
2017-09-19T08:32:38.988Z,15
2017-09-19T08:33:48.327Z,15
2017-09-19T08:34:57.024Z,15
2017-09-19T08:36:06.044Z,20
2017-09-19T08:37:15.060Z,20
2017-09-19T08:38:24.397Z,15
2017-09-19T08:39:33.410Z,15
2017-09-19T08:40:42.748Z,15
2017-09-19T08:41:52.079Z,15
2017-09-19T08:43:01.418Z,15
2017-09-19T08:44:10.752Z,15
2017-09-19T08:45:19.769Z,20
2017-09-19T08:46:28.784Z,20
2017-09-19T08:47:38.438Z,30
2017-09-19T08:48:47.455Z,40
2017-09-19T08:49:56.150Z,50
2017-09-19T08:51:04.846Z,65
2017-09-19T08:52:13.541Z,70
2017-09-19T08:53:22.234Z,85
2017-09-19T08:54:30.929Z,50
2017-09-19T08:55:40.263Z,45
2017-09-19T08:56:49.279Z,45
2017-09-19T08:57:58.292Z,45
2017-09-19T08:59:07.305Z,40
2017-09-19T09:00:17.285Z,35
2017-09-19T09:01:26.305Z,30
2017-09-19T09:02:35.644Z,25
2017-09-19T09:03:44.339Z,20
2017-09-19T09:04:53.356Z,20
2017-09-19T09:06:02.371Z,25
2017-09-19T09:07:11.706Z,30
2017-09-19T09:08:21.052Z,35
2017-09-19T09:09:30.393Z,40
2017-09-19T09:10:40.053Z,40
2017-09-19T09:11:49.389Z,40
2017-09-19T09:12:58.729Z,35
2017-09-19T09:14:07.740Z,35
2017-09-19T09:15:16.754Z,35
2017-09-19T09:16:25.770Z,40
2017-09-19T09:17:34.785Z,40
2017-09-19T09:18:43.800Z,40
2017-09-19T09:19:53.454Z,35
2017-09-19T09:21:02.470Z,35
2017-09-19T09:22:11.807Z,40
2017-09-19T09:23:20.824Z,35
2017-09-19T09:24:29.836Z,40
2017-09-19T09:25:39.170Z,40
2017-09-19T09:26:48.506Z,40
2017-09-19T09:27:57.208Z,40
2017-09-19T09:29:06.226Z,30
2017-09-19T09:30:15.239Z,25
2017-09-19T09:31:24.258Z,30
2017-09-19T09:32:33.591Z,40
2017-09-19T09:33:42.609Z,50
2017-09-19T09:34:51.944Z,50
2017-09-19T09:36:01.919Z,40
2017-09-19T09:37:11.254Z,30
2017-09-19T09:38:19.950Z,20
2017-09-19T09:39:29.283Z,20
2017-09-19T09:40:38.616Z,20
2017-09-19T09:41:47.633Z,20
2017-09-19T09:42:56.966Z,20
2017-09-19T09:44:05.986Z,20
2017-09-19T09:45:15.643Z,20
2017-09-19T09:46:24.662Z,25
2017-09-19T09:47:34.638Z,25
2017-09-19T09:48:43.654Z,35
2017-09-19T09:49:52.988Z,40
2017-09-19T09:51:02.646Z,45
2017-09-19T09:52:11.663Z,55
2017-09-19T09:53:20.680Z,60
2017-09-19T09:54:29.376Z,80
2017-09-19T09:55:38.400Z,85
2017-09-19T09:56:47.095Z,85
2017-09-19T09:57:55.789Z,90
2017-09-19T09:59:05.124Z,90
2017-09-19T10:00:14.136Z,100
2017-09-19T10:01:23.794Z,100
2017-09-19T10:02:32.807Z,90
2017-09-19T10:03:42.148Z,95
2017-09-19T10:04:50.842Z,105
2017-09-19T10:06:00.827Z,120
2017-09-19T10:07:10.163Z,135
2017-09-19T10:08:19.179Z,480
2017-09-19T10:09:28.517Z,210
2017-09-19T10:10:37.532Z,75
2017-09-19T10:11:47.193Z,65
2017-09-19T10:12:56.217Z,60
2017-09-19T10:14:05.554Z,50
2017-09-19T10:15:15.210Z,50
2017-09-19T10:16:23.907Z,45
2017-09-19T10:17:32.924Z,45
2017-09-19T10:18:41.944Z,40
2017-09-19T10:19:51.607Z,40
2017-09-19T10:21:00.618Z,40
2017-09-19T10:22:09.642Z,35
2017-09-19T10:23:18.341Z,35
2017-09-19T10:24:27.676Z,35
2017-09-19T10:25:36.693Z,35
2017-09-19T10:26:45.708Z,35
2017-09-19T10:27:54.405Z,30
2017-09-19T10:29:04.061Z,30
2017-09-19T10:30:13.078Z,25
2017-09-19T10:31:22.733Z,25
2017-09-19T10:32:32.396Z,20
2017-09-19T10:33:41.092Z,20
2017-09-19T10:34:50.432Z,20
2017-09-19T10:35:59.130Z,15
2017-09-19T10:37:08.153Z,15
2017-09-19T10:38:17.172Z,15
2017-09-19T10:39:25.868Z,20
2017-09-19T10:40:35.207Z,20
2017-09-19T10:41:44.546Z,20
2017-09-19T10:42:53.240Z,20
2017-09-19T10:44:02.254Z,20
2017-09-19T10:45:11.609Z,20
2017-09-19T10:46:21.269Z,20
2017-09-19T10:47:30.283Z,20
2017-09-19T10:48:39.937Z,20
2017-09-19T10:49:48.632Z,20
2017-09-19T10:50:57.326Z,20
2017-09-19T10:52:06.663Z,20
2017-09-19T10:53:15.682Z,20
2017-09-19T10:54:25.017Z,25
2017-09-19T10:55:34.029Z,25
2017-09-19T10:56:43.691Z,25
2017-09-19T10:57:52.717Z,25
2017-09-19T10:59:01.735Z,25
2017-09-19T11:00:10.441Z,25
2017-09-19T11:01:19.459Z,25
2017-09-19T11:02:28.476Z,25
2017-09-19T11:03:37.173Z,25
2017-09-19T11:04:46.516Z,30
2017-09-19T11:05:55.849Z,30
2017-09-19T11:07:04.867Z,30
2017-09-19T11:08:13.565Z,30
2017-09-19T11:09:22.578Z,25
2017-09-19T11:10:32.242Z,25
2017-09-19T11:11:40.936Z,25
2017-09-19T11:12:50.272Z,25
2017-09-19T11:13:59.291Z,30
2017-09-19T11:15:08.307Z,30
2017-09-19T11:16:17.002Z,35
2017-09-19T11:17:25.698Z,35
2017-09-19T11:18:35.032Z,40
2017-09-19T11:19:44.049Z,35
2017-09-19T11:20:53.715Z,35
2017-09-19T11:22:02.412Z,35
2017-09-19T11:23:11.746Z,50
2017-09-19T11:24:20.441Z,70
2017-09-19T11:25:29.778Z,70
2017-09-19T11:26:38.800Z,120
2017-09-19T11:27:48.454Z,125
2017-09-19T11:28:57.467Z,135
2017-09-19T11:30:06.804Z,515
2017-09-19T11:31:15.818Z,140
2017-09-19T11:32:25.474Z,175
2017-09-19T11:33:34.170Z,115
2017-09-19T11:34:43.187Z,565
2017-09-19T11:35:52.847Z,330
2017-09-19T11:37:01.860Z,515
2017-09-19T11:38:10.557Z,180
2017-09-19T11:39:19.899Z,255
2017-09-19T11:40:28.915Z,210
2017-09-19T11:41:38.249Z,175
2017-09-19T11:42:47.268Z,190
2017-09-19T11:43:56.282Z,235
2017-09-19T11:45:05.660Z,330
2017-09-19T11:46:14.320Z,110
2017-09-19T11:47:23.979Z,90
2017-09-19T11:48:32.678Z,80
2017-09-19T11:49:41.700Z,90
2017-09-19T11:50:51.357Z,95
2017-09-19T11:52:00.375Z,140
2017-09-19T11:53:09.711Z,150
2017-09-19T11:54:19.364Z,185
2017-09-19T11:55:28.380Z,180
2017-09-19T11:56:37.395Z,135
2017-09-19T11:57:46.729Z,85
2017-09-19T11:58:55.747Z,55
2017-09-19T12:00:05.080Z,45
2017-09-19T12:01:14.418Z,30
2017-09-19T12:02:23.433Z,20
2017-09-19T12:03:32.447Z,15
2017-09-19T12:04:42.101Z,15
2017-09-19T12:05:51.114Z,10
2017-09-19T12:07:00.130Z,10
2017-09-19T12:08:09.158Z,15
2017-09-19T12:09:17.853Z,15
2017-09-19T12:10:27.221Z,10
2017-09-19T12:11:36.563Z,15
2017-09-19T12:12:45.901Z,15
2017-09-19T12:13:54.597Z,20
2017-09-19T12:15:03.296Z,20
2017-09-19T12:16:12.311Z,20
2017-09-19T12:17:21.326Z,20
2017-09-19T12:18:30.023Z,20
2017-09-19T12:19:39.036Z,20
2017-09-19T12:20:48.059Z,25
2017-09-19T12:21:57.394Z,25
2017-09-19T12:23:06.413Z,25
2017-09-19T12:24:15.746Z,25
2017-09-19T12:25:24.444Z,25
2017-09-19T12:26:33.784Z,25
2017-09-19T12:27:43.124Z,30
2017-09-19T12:28:51.823Z,30
2017-09-19T12:30:00.520Z,30
2017-09-19T12:31:09.536Z,30
2017-09-19T12:32:18.551Z,30
2017-09-19T12:33:27.564Z,30
2017-09-19T12:34:36.901Z,30
2017-09-19T12:35:46.247Z,30
2017-09-19T12:36:54.943Z,25
2017-09-19T12:38:03.960Z,25
2017-09-19T12:39:13.298Z,25
2017-09-19T12:40:22.313Z,25
2017-09-19T12:41:31.650Z,25
2017-09-19T12:42:40.988Z,25
2017-09-19T12:43:49.685Z,25
2017-09-19T12:44:58.697Z,30
2017-09-19T12:46:07.395Z,30
2017-09-19T12:47:16.095Z,30
2017-09-19T12:48:25.110Z,35
2017-09-19T12:49:34.447Z,40
2017-09-19T12:50:43.141Z,40
2017-09-19T12:51:52.157Z,45
2017-09-19T12:53:00.852Z,50
2017-09-19T12:54:10.193Z,55
2017-09-19T12:55:19.209Z,70
2017-09-19T12:56:27.905Z,75
2017-09-19T12:57:36.919Z,80
2017-09-19T12:58:45.937Z,80
2017-09-19T12:59:54.633Z,85
2017-09-19T13:01:04.288Z,80
2017-09-19T13:02:12.982Z,75
2017-09-19T13:03:21.997Z,65
2017-09-19T13:04:31.046Z,60
2017-09-19T13:05:40.063Z,65
2017-09-19T13:06:49.721Z,80
2017-09-19T13:07:58.737Z,80
2017-09-19T13:09:08.396Z,75
2017-09-19T13:10:17.409Z,80
2017-09-19T13:11:26.427Z,80
2017-09-19T13:12:36.086Z,80
2017-09-19T13:13:45.114Z,80
2017-09-19T13:14:54.449Z,70
2017-09-19T13:16:03.792Z,70
2017-09-19T13:17:12.809Z,70
2017-09-19T13:18:21.506Z,65
2017-09-19T13:19:30.522Z,65
2017-09-19T13:20:39.859Z,60
2017-09-19T13:21:48.875Z,60
2017-09-19T13:22:58.530Z,50
2017-09-19T13:24:07.892Z,50
2017-09-19T13:25:17.554Z,50
2017-09-19T13:26:26.570Z,50
2017-09-19T13:27:35.584Z,45
2017-09-19T13:28:44.927Z,40
2017-09-19T13:29:54.260Z,40
2017-09-19T13:31:03.275Z,40
2017-09-19T13:32:12.294Z,35
2017-09-19T13:33:20.990Z,30
2017-09-19T13:34:30.006Z,30
2017-09-19T13:35:39.353Z,25
2017-09-19T13:36:49.334Z,20
2017-09-19T13:37:58.349Z,20
2017-09-19T13:39:07.686Z,15
2017-09-19T13:40:16.705Z,10
2017-09-19T13:41:26.691Z,10
2017-09-19T13:42:35.385Z,10
2017-09-19T13:43:44.401Z,10
2017-09-19T13:44:53.416Z,10
2017-09-19T13:46:02.116Z,10
2017-09-19T13:47:11.456Z,15
2017-09-19T13:48:20.475Z,15
2017-09-19T13:49:29.493Z,15
2017-09-19T13:50:38.833Z,20
2017-09-19T13:51:47.854Z,25
2017-09-19T13:52:56.549Z,25
2017-09-19T13:54:05.565Z,30
2017-09-19T13:55:14.915Z,30
2017-09-19T13:56:24.248Z,30
2017-09-19T13:57:33.915Z,30
2017-09-19T13:58:43.260Z,30
2017-09-19T13:59:51.970Z,25
2017-09-19T14:01:00.984Z,30
2017-09-19T14:02:10.002Z,35
2017-09-19T14:03:19.658Z,35
2017-09-19T14:04:29.312Z,35
2017-09-19T14:05:38.649Z,30
2017-09-19T14:06:47.982Z,30
2017-09-19T14:07:56.680Z,30
2017-09-19T14:09:05.705Z,35
2017-09-19T14:10:14.402Z,35
2017-09-19T14:11:23.422Z,35
2017-09-19T14:12:32.766Z,35
2017-09-19T14:13:41.455Z,35
2017-09-19T14:14:50.153Z,35
2017-09-19T14:15:59.805Z,35
2017-09-19T14:17:08.832Z,45
2017-09-19T14:18:17.849Z,50
2017-09-19T14:19:26.866Z,45
2017-09-19T14:20:36.522Z,45
2017-09-19T14:21:45.540Z,45
2017-09-19T14:22:54.233Z,40
2017-09-19T14:24:03.257Z,25
2017-09-19T14:25:12.595Z,25
2017-09-19T14:26:21.613Z,25
2017-09-19T14:27:30.950Z,25
2017-09-19T14:28:40.289Z,30
2017-09-19T14:29:49.626Z,30
2017-09-19T14:30:58.646Z,30
2017-09-19T14:32:07.986Z,30
2017-09-19T14:33:16.683Z,30
2017-09-19T14:34:26.018Z,25
2017-09-19T14:35:35.034Z,25
2017-09-19T14:36:44.052Z,25
2017-09-19T14:37:53.077Z,25
2017-09-19T14:39:02.093Z,25
2017-09-19T14:40:10.788Z,30
2017-09-19T14:41:19.808Z,35
2017-09-19T14:42:29.141Z,45
2017-09-19T14:43:38.162Z,45
2017-09-19T14:44:46.857Z,45
2017-09-19T14:45:56.193Z,40
2017-09-19T14:47:05.210Z,35
2017-09-19T14:48:14.543Z,45
2017-09-19T14:49:23.559Z,45
2017-09-19T14:50:32.903Z,45
2017-09-19T14:51:41.913Z,45
2017-09-19T14:52:50.929Z,45
2017-09-19T14:53:59.947Z,40
2017-09-19T14:55:09.281Z,40
2017-09-19T14:56:18.615Z,40
2017-09-19T14:57:27.311Z,40
2017-09-19T14:58:36.330Z,35
2017-09-19T14:59:45.346Z,35
2017-09-19T15:00:54.042Z,35
2017-09-19T15:02:03.702Z,35
2017-09-19T15:03:12.400Z,35
2017-09-19T15:04:21.413Z,35
2017-09-19T15:05:30.434Z,30
2017-09-19T15:06:39.451Z,30
2017-09-19T15:07:48.787Z,30
2017-09-19T15:08:57.483Z,30
2017-09-19T15:10:07.142Z,30
2017-09-19T15:11:15.838Z,30
2017-09-19T15:12:25.498Z,25
2017-09-19T15:13:34.515Z,25
2017-09-19T15:14:43.850Z,20
2017-09-19T15:15:52.882Z,20
2017-09-19T15:17:02.216Z,20
2017-09-19T15:18:11.551Z,20
2017-09-19T15:19:20.887Z,15
2017-09-19T15:20:30.221Z,15
2017-09-19T15:21:39.236Z,15
2017-09-19T15:22:48.252Z,15
2017-09-19T15:23:57.906Z,15
2017-09-19T15:25:06.923Z,15
2017-09-19T15:26:16.258Z,15
2017-09-19T15:27:24.954Z,15
2017-09-19T15:28:33.650Z,15
2017-09-19T15:29:42.671Z,15
2017-09-19T15:30:52.326Z,15
2017-09-19T15:32:01.664Z,15
2017-09-19T15:33:11.001Z,15
2017-09-19T15:34:20.017Z,15
2017-09-19T15:35:29.036Z,15
2017-09-19T15:36:38.368Z,20
2017-09-19T15:37:47.065Z,20
2017-09-19T15:38:55.759Z,20
2017-09-19T15:40:04.777Z,20
2017-09-19T15:41:14.113Z,20
2017-09-19T15:42:23.447Z,20
2017-09-19T15:43:32.142Z,25
2017-09-19T15:44:41.165Z,25
2017-09-19T15:45:50.177Z,25
2017-09-19T15:46:59.838Z,25
2017-09-19T15:48:08.536Z,25
2017-09-19T15:49:17.553Z,25
2017-09-19T15:50:27.216Z,25
2017-09-19T15:51:36.556Z,25
2017-09-19T15:52:46.209Z,25
2017-09-19T15:53:55.221Z,25
2017-09-19T15:55:04.235Z,25
2017-09-19T15:56:13.892Z,30
2017-09-19T15:57:23.865Z,25
2017-09-19T15:58:32.880Z,25
2017-09-19T15:59:41.577Z,20
2017-09-19T16:00:51.232Z,20
2017-09-19T16:02:00.246Z,15
2017-09-19T16:03:09.901Z,15
2017-09-19T16:04:18.920Z,15
2017-09-19T16:05:28.256Z,15
2017-09-19T16:06:37.935Z,15
2017-09-19T16:07:46.952Z,15
2017-09-19T16:08:56.288Z,15
2017-09-19T16:10:04.985Z,15
2017-09-19T16:11:14.011Z,15
2017-09-19T16:12:22.704Z,15
2017-09-19T16:13:31.399Z,10
2017-09-19T16:14:41.374Z,10
2017-09-19T16:15:50.388Z,10
2017-09-19T16:16:59.404Z,10
2017-09-19T16:18:08.737Z,10
2017-09-19T16:19:17.435Z,10
2017-09-19T16:20:26.768Z,10
2017-09-19T16:21:36.739Z,10
2017-09-19T16:22:45.437Z,10
2017-09-19T16:23:54.133Z,10
2017-09-19T16:25:03.147Z,10
2017-09-19T16:26:12.161Z,10
2017-09-19T16:27:20.857Z,10
2017-09-19T16:28:30.203Z,10
2017-09-19T16:29:39.222Z,10
2017-09-19T16:30:48.565Z,10
2017-09-19T16:31:58.217Z,10
2017-09-19T16:33:07.233Z,10
2017-09-19T16:34:15.928Z,10
2017-09-19T16:35:25.263Z,10
2017-09-19T16:36:34.605Z,10
2017-09-19T16:37:44.587Z,10
2017-09-19T16:38:53.925Z,10
2017-09-19T16:40:02.622Z,10
2017-09-19T16:41:11.315Z,10
2017-09-19T16:42:20.330Z,10